createdAt,value
2018-03-06T00:00:54.539Z,49.40
2018-03-06T00:03:21.930Z,56.07
2018-03-06T00:05:49.291Z,53.40
2018-03-06T00:08:16.677Z,63.40
2018-03-06T00:10:44.048Z,61.87
2018-03-06T00:13:11.425Z,50.27
2018-03-06T00:15:38.777Z,57.03
2018-03-06T00:18:06.179Z,60.00
2018-03-06T00:20:33.564Z,51.17
2018-03-06T00:23:00.951Z,61.87
2018-03-06T00:25:28.319Z,61.27
2018-03-06T00:27:55.703Z,54.73
2018-03-06T00:30:23.064Z,61.27
2018-03-06T00:32:50.454Z,61.60
2018-03-06T00:35:17.807Z,68.37
2018-03-06T00:37:45.201Z,67.83
2018-03-06T00:40:12.554Z,61.20
2018-03-06T00:42:39.962Z,58.13
2018-03-06T00:45:07.328Z,70.43
2018-03-06T00:47:34.723Z,61.07
2018-03-06T00:50:02.095Z,72.63
2018-03-06T00:52:29.494Z,60.90
2018-03-06T00:54:56.858Z,55.73
2018-03-06T00:57:24.248Z,63.73
2018-03-06T00:59:51.607Z,63.80
2018-03-06T01:02:18.977Z,68.80
2018-03-06T01:04:46.356Z,63.33
2018-03-06T01:07:13.730Z,66.33
2018-03-06T01:09:41.151Z,67.30
2018-03-06T01:12:08.528Z,70.37
2018-03-06T01:14:35.920Z,76.20
2018-03-06T01:17:03.275Z,76.23
2018-03-06T01:19:30.678Z,77.43
2018-03-06T01:21:58.038Z,75.30
2018-03-06T01:24:25.475Z,73.77
2018-03-06T01:26:52.841Z,75.63
2018-03-06T01:29:20.240Z,76.07
2018-03-06T01:31:47.602Z,69.10
2018-03-06T01:34:15.002Z,84.23
2018-03-06T01:36:42.366Z,71.27
2018-03-06T01:39:09.756Z,82.00
2018-03-06T01:41:37.122Z,79.77
2018-03-06T01:44:04.516Z,76.70
2018-03-06T01:46:31.878Z,89.60
2018-03-06T01:48:59.267Z,86.77
2018-03-06T01:51:26.637Z,82.33
2018-03-06T01:53:54.063Z,81.30
2018-03-06T01:56:21.432Z,81.27
2018-03-06T01:58:48.827Z,83.33
2018-03-06T02:01:16.192Z,86.20
2018-03-06T02:03:43.583Z,85.03
2018-03-06T02:06:10.993Z,85.63
2018-03-06T02:08:38.390Z,77.40
2018-03-06T02:11:05.759Z,84.03
2018-03-06T02:13:33.240Z,84.70
2018-03-06T02:16:00.588Z,86.33
2018-03-06T02:18:27.992Z,76.90
2018-03-06T02:20:55.372Z,83.77
2018-03-06T02:23:22.763Z,77.57
2018-03-06T02:25:50.113Z,79.03
2018-03-06T02:28:17.489Z,81.23
2018-03-06T02:30:44.877Z,87.23
2018-03-06T02:33:12.236Z,79.80
2018-03-06T02:35:39.619Z,77.87
2018-03-06T02:38:06.985Z,91.13
2018-03-06T02:40:34.383Z,73.80
2018-03-06T02:43:01.746Z,74.67
2018-03-06T02:45:29.160Z,88.70
2018-03-06T02:47:56.541Z,87.50
2018-03-06T02:50:23.936Z,80.87
2018-03-06T02:52:51.290Z,93.57
2018-03-06T02:55:18.678Z,76.33
2018-03-06T02:57:46.036Z,87.53
2018-03-06T03:00:13.438Z,79.43
2018-03-06T03:02:40.811Z,89.93
2018-03-06T03:05:08.186Z,86.00
2018-03-06T03:07:35.604Z,90.60
2018-03-06T03:10:02.982Z,86.70
2018-03-06T03:12:30.408Z,87.53
2018-03-06T03:14:57.795Z,87.33
2018-03-06T03:17:25.192Z,91.30
2018-03-06T03:19:52.563Z,82.10
2018-03-06T03:22:19.948Z,90.13
2018-03-06T03:24:47.309Z,90.43
2018-03-06T03:27:14.728Z,91.80
2018-03-06T03:29:42.097Z,92.10
2018-03-06T03:32:09.494Z,83.13
2018-03-06T03:34:36.865Z,90.77
2018-03-06T03:37:04.255Z,95.33
2018-03-06T03:39:31.618Z,92.17
2018-03-06T03:41:59.042Z,94.77
2018-03-06T03:44:26.447Z,100.37
2018-03-06T03:46:53.810Z,90.73
2018-03-06T03:49:21.169Z,89.27
2018-03-06T03:51:48.576Z,98.03
2018-03-06T03:54:15.953Z,97.00
2018-03-06T03:56:43.348Z,85.83
2018-03-06T03:59:10.738Z,92.37
2018-03-06T04:01:38.131Z,84.73
2018-03-06T04:04:05.506Z,76.97
2018-03-06T04:06:32.930Z,91.37
2018-03-06T04:09:00.320Z,92.93
2018-03-06T04:11:27.699Z,95.60
2018-03-06T04:13:55.091Z,99.87
2018-03-06T04:16:22.451Z,88.40
2018-03-06T04:18:49.851Z,90.20
2018-03-06T04:21:17.197Z,93.97
2018-03-06T04:23:44.593Z,82.77
2018-03-06T04:26:11.970Z,97.83
2018-03-06T04:28:39.386Z,87.00
2018-03-06T04:31:06.763Z,100.10
2018-03-06T04:33:34.174Z,96.23
2018-03-06T04:36:01.543Z,93.50
2018-03-06T04:38:28.899Z,96.03
2018-03-06T04:40:56.295Z,87.07
2018-03-06T04:43:23.663Z,95.70
2018-03-06T04:45:51.098Z,91.90
2018-03-06T04:48:18.460Z,87.17
2018-03-06T04:50:45.857Z,86.50
2018-03-06T04:53:13.229Z,81.50
2018-03-06T04:55:40.649Z,83.17
2018-03-06T04:58:07.998Z,85.93
2018-03-06T05:00:35.405Z,93.27
2018-03-06T05:03:02.769Z,91.43
2018-03-06T05:05:30.170Z,95.90
2018-03-06T05:07:57.531Z,92.30
2018-03-06T05:10:24.950Z,89.07
2018-03-06T05:12:52.300Z,97.87
2018-03-06T05:15:19.707Z,86.13
2018-03-06T05:17:47.068Z,97.17
2018-03-06T05:20:14.467Z,86.13
2018-03-06T05:22:41.868Z,92.00
2018-03-06T05:25:09.243Z,104.57
2018-03-06T05:27:36.623Z,97.30
2018-03-06T05:30:03.993Z,95.23
2018-03-06T05:32:31.403Z,91.63
2018-03-06T05:34:58.770Z,92.10
2018-03-06T05:37:26.159Z,91.93
2018-03-06T05:39:53.520Z,89.17
2018-03-06T05:42:20.907Z,98.33
2018-03-06T05:44:48.255Z,86.60
2018-03-06T05:47:15.662Z,103.00
2018-03-06T05:49:43.047Z,84.63
2018-03-06T05:52:10.432Z,92.33
2018-03-06T05:54:37.818Z,94.13
2018-03-06T05:57:05.223Z,99.60
2018-03-06T05:59:32.593Z,97.33
2018-03-06T06:01:59.995Z,90.60
2018-03-06T06:04:27.353Z,89.20
2018-03-06T06:06:54.740Z,100.87
2018-03-06T06:09:22.138Z,98.32
2018-03-06T06:11:49.524Z,99.80
2018-03-06T06:14:16.888Z,99.73
2018-03-06T06:16:44.287Z,94.57
2018-03-06T06:19:11.626Z,95.67
2018-03-06T06:21:38.997Z,99.37
2018-03-06T06:24:06.360Z,98.93
2018-03-06T06:26:33.735Z,99.00
2018-03-06T06:29:01.074Z,99.07
2018-03-06T06:31:28.447Z,95.93
2018-03-06T06:33:55.790Z,96.57
2018-03-06T06:36:23.167Z,108.30
2018-03-06T06:38:50.524Z,104.90
2018-03-06T06:41:17.939Z,100.93
2018-03-06T06:43:45.290Z,106.97
2018-03-06T06:46:12.629Z,96.23
2018-03-06T06:48:40.060Z,104.73
2018-03-06T06:51:07.430Z,97.80
2018-03-06T06:53:34.831Z,113.80
2018-03-06T06:56:02.176Z,100.03
2018-03-06T06:58:29.551Z,107.80
2018-03-06T07:00:56.902Z,104.53
2018-03-06T07:03:24.279Z,107.10
2018-03-06T07:05:51.638Z,102.77
2018-03-06T07:08:19.016Z,108.10
2018-03-06T07:10:46.371Z,103.30
2018-03-06T07:13:13.775Z,96.53
2018-03-06T07:15:41.114Z,119.30
2018-03-06T07:18:08.492Z,114.57
2018-03-06T07:20:35.837Z,101.90
2018-03-06T07:23:03.205Z,101.63
2018-03-06T07:25:30.555Z,116.13
2018-03-06T07:27:57.928Z,112.50
2018-03-06T07:30:25.275Z,107.03
2018-03-06T07:32:52.651Z,113.70
2018-03-06T07:35:20.000Z,106.83
2018-03-06T07:37:47.354Z,111.63
2018-03-06T07:40:14.734Z,106.90
2018-03-06T07:42:42.084Z,107.90
2018-03-06T07:45:09.450Z,105.63
2018-03-06T07:47:36.802Z,112.07
2018-03-06T07:50:04.179Z,108.40
2018-03-06T07:52:31.531Z,112.77
2018-03-06T07:54:58.908Z,114.17
2018-03-06T07:57:26.260Z,106.40
2018-03-06T07:59:53.631Z,105.40
2018-03-06T08:02:20.972Z,112.30
2018-03-06T08:04:48.352Z,112.00
2018-03-06T08:07:15.704Z,112.23
2018-03-06T08:09:43.082Z,121.03
2018-03-06T08:12:10.434Z,103.57
2018-03-06T08:14:37.814Z,118.90
2018-03-06T08:17:05.163Z,113.27
2018-03-06T08:19:32.559Z,118.23
2018-03-06T08:21:59.913Z,117.23
2018-03-06T08:24:27.288Z,121.90
2018-03-06T08:26:54.629Z,108.73
2018-03-06T08:29:22.002Z,115.33
2018-03-06T08:31:49.356Z,117.87
2018-03-06T08:34:16.730Z,117.60
2018-03-06T08:36:44.080Z,128.80
2018-03-06T08:39:11.465Z,138.57
2018-03-06T08:41:38.820Z,125.93
2018-03-06T08:44:06.188Z,118.10
2018-03-06T08:46:33.534Z,122.10
2018-03-06T08:49:00.906Z,124.57
2018-03-06T08:51:28.294Z,115.60
2018-03-06T08:53:55.651Z,120.70
2018-03-06T08:56:23.001Z,113.73
2018-03-06T08:58:50.374Z,120.47
2018-03-06T09:01:17.727Z,113.00
2018-03-06T09:03:45.071Z,111.17
2018-03-06T09:06:12.452Z,123.37
2018-03-06T09:08:39.795Z,113.17
2018-03-06T09:11:07.162Z,115.43
2018-03-06T09:13:34.516Z,114.20
2018-03-06T09:16:01.892Z,130.53
2018-03-06T09:18:29.262Z,127.30
2018-03-06T09:20:56.634Z,118.40
2018-03-06T09:23:23.979Z,122.50
2018-03-06T09:25:51.354Z,117.00
2018-03-06T09:28:18.699Z,121.70
2018-03-06T09:30:46.079Z,116.43
2018-03-06T09:33:13.436Z,115.13
2018-03-06T09:35:40.807Z,127.13
2018-03-06T09:38:08.161Z,110.97
2018-03-06T09:40:35.536Z,116.40
2018-03-06T09:43:02.883Z,118.30
2018-03-06T09:45:30.241Z,114.87
2018-03-06T09:47:57.624Z,118.67
2018-03-06T09:50:24.974Z,125.60
2018-03-06T09:52:52.353Z,123.77
2018-03-06T09:55:19.698Z,128.77
2018-03-06T09:57:47.078Z,125.03
2018-03-06T10:00:14.421Z,129.23
2018-03-06T10:02:41.790Z,126.00
2018-03-06T10:05:09.149Z,120.73
2018-03-06T10:07:36.542Z,128.60
2018-03-06T10:10:03.887Z,125.30
2018-03-06T10:12:31.239Z,121.60
2018-03-06T10:14:58.611Z,136.33
2018-03-06T10:17:25.953Z,121.97
2018-03-06T10:19:53.335Z,129.57
2018-03-06T10:22:20.681Z,124.23
2018-03-06T10:24:48.053Z,127.17
2018-03-06T10:27:15.406Z,127.07
2018-03-06T10:29:42.774Z,137.40
2018-03-06T10:32:10.135Z,131.40
2018-03-06T10:34:37.510Z,125.73
2018-03-06T10:37:04.890Z,133.07
2018-03-06T10:39:32.266Z,133.23
2018-03-06T10:41:59.612Z,130.63
2018-03-06T10:44:26.992Z,130.33
2018-03-06T10:46:54.344Z,138.93
2018-03-06T10:49:21.716Z,136.83
2018-03-06T10:51:49.066Z,129.83
2018-03-06T10:54:16.443Z,126.70
2018-03-06T10:56:43.804Z,132.43
2018-03-06T10:59:11.178Z,129.90
2018-03-06T11:01:38.529Z,133.73
2018-03-06T11:04:05.918Z,131.20
2018-03-06T11:06:33.301Z,138.53
2018-03-06T11:09:00.671Z,132.93
2018-03-06T11:11:28.025Z,139.60
2018-03-06T11:13:55.409Z,132.80
2018-03-06T11:16:22.756Z,140.17
2018-03-06T11:18:50.131Z,132.93
2018-03-06T11:21:17.488Z,144.63
2018-03-06T11:23:44.862Z,126.17
2018-03-06T11:26:12.202Z,123.67
2018-03-06T11:28:39.574Z,136.80
2018-03-06T11:31:06.921Z,145.77
2018-03-06T11:33:34.322Z,142.03
2018-03-06T11:36:01.815Z,120.80
2018-03-06T11:38:29.164Z,136.87
2018-03-06T11:40:56.547Z,135.73
2018-03-06T11:43:23.887Z,129.83
2018-03-06T11:45:51.268Z,133.73
2018-03-06T11:48:18.623Z,135.97
2018-03-06T11:50:45.998Z,132.07
2018-03-06T11:53:13.351Z,116.77
2018-03-06T11:55:40.727Z,144.50
2018-03-06T11:58:08.076Z,125.50
2018-03-06T12:00:35.451Z,129.73
2018-03-06T12:03:02.814Z,126.90
2018-03-06T12:05:30.214Z,126.53
2018-03-06T12:07:57.588Z,132.17
2018-03-06T12:10:24.958Z,132.47
2018-03-06T12:12:52.311Z,120.13
2018-03-06T12:15:19.695Z,128.77
2018-03-06T12:17:47.053Z,126.33
2018-03-06T12:20:15.311Z,140.67
2018-03-06T12:22:42.663Z,125.40
2018-03-06T12:25:10.040Z,139.73
2018-03-06T12:27:37.386Z,136.40
2018-03-06T12:30:04.770Z,123.90
2018-03-06T12:32:32.142Z,118.03
2018-03-06T12:34:59.518Z,126.77
2018-03-06T12:37:26.883Z,125.50
2018-03-06T12:39:54.281Z,131.90
2018-03-06T12:42:21.644Z,124.63
2018-03-06T12:44:49.032Z,131.23
2018-03-06T12:47:16.383Z,123.40
2018-03-06T12:49:43.742Z,139.67
2018-03-06T12:52:11.085Z,124.17
2018-03-06T12:54:38.467Z,118.40
2018-03-06T12:57:05.822Z,123.80
2018-03-06T12:59:33.202Z,136.27
2018-03-06T13:02:00.551Z,127.10
2018-03-06T13:04:27.924Z,131.83
2018-03-06T13:06:55.297Z,132.03
2018-03-06T13:09:22.634Z,130.00
2018-03-06T13:11:50.007Z,124.57
2018-03-06T13:14:17.356Z,117.97
2018-03-06T13:16:44.722Z,129.47
2018-03-06T13:19:12.086Z,133.43
2018-03-06T13:21:39.465Z,121.57
2018-03-06T13:24:06.814Z,124.53
2018-03-06T13:26:34.178Z,124.03
2018-03-06T13:29:01.531Z,163.20
2018-03-06T13:31:28.901Z,139.17
2018-03-06T13:33:56.247Z,126.97
2018-03-06T13:36:23.619Z,120.73
2018-03-06T13:38:50.956Z,132.93
2018-03-06T13:41:18.322Z,121.00
2018-03-06T13:43:45.680Z,129.67
2018-03-06T13:46:13.055Z,131.53
2018-03-06T13:48:40.444Z,132.67
2018-03-06T13:51:07.812Z,133.73
2018-03-06T13:53:35.162Z,118.07
2018-03-06T13:56:02.587Z,128.53
2018-03-06T13:58:29.991Z,138.17
2018-03-06T14:00:57.339Z,128.57
2018-03-06T14:03:24.734Z,126.07
2018-03-06T14:05:52.081Z,119.83
2018-03-06T14:08:19.453Z,110.03
2018-03-06T14:10:46.805Z,124.93
2018-03-06T14:13:14.183Z,135.13
2018-03-06T14:15:41.530Z,133.90
2018-03-06T14:18:08.903Z,138.10
2018-03-06T14:20:36.253Z,130.47
2018-03-06T14:23:03.630Z,126.83
2018-03-06T14:25:30.984Z,105.67
2018-03-06T14:27:58.352Z,111.43
2018-03-06T14:30:25.706Z,111.33
2018-03-06T14:32:53.083Z,100.13
2018-03-06T14:35:20.422Z,102.40
2018-03-06T14:37:47.803Z,97.77
2018-03-06T14:40:15.142Z,98.73
2018-03-06T14:42:42.512Z,98.33
2018-03-06T14:45:09.864Z,101.90
2018-03-06T14:47:37.230Z,105.77
2018-03-06T14:50:04.571Z,102.33
2018-03-06T14:52:31.975Z,104.43
2018-03-06T14:54:59.339Z,100.33
2018-03-06T14:57:26.708Z,101.90
2018-03-06T14:59:54.058Z,89.20
2018-03-06T15:02:21.436Z,107.27
2018-03-06T15:04:48.806Z,89.93
2018-03-06T15:07:16.200Z,87.93
2018-03-06T15:09:43.535Z,74.27
2018-03-06T15:12:10.908Z,76.47
2018-03-06T15:14:38.249Z,75.97
2018-03-06T15:17:05.706Z,82.33
2018-03-06T15:19:33.048Z,89.67
2018-03-06T15:22:00.432Z,92.70
2018-03-06T15:24:27.773Z,88.30
2018-03-06T15:26:55.114Z,82.70
2018-03-06T15:29:22.479Z,80.73
2018-03-06T15:31:49.820Z,79.67
2018-03-06T15:34:17.187Z,102.30
2018-03-06T15:36:44.528Z,84.03
2018-03-06T15:39:11.898Z,88.27
2018-03-06T15:41:39.298Z,86.20
2018-03-06T15:44:06.650Z,97.77
2018-03-06T15:46:33.987Z,95.07
2018-03-06T15:49:01.355Z,93.30
2018-03-06T15:51:28.695Z,87.40
2018-03-06T15:53:56.068Z,85.97
2018-03-06T15:56:23.420Z,93.80
2018-03-06T15:58:50.788Z,94.30
2018-03-06T16:01:18.133Z,100.00
2018-03-06T16:03:45.510Z,90.63
2018-03-06T16:06:12.881Z,91.73
2018-03-06T16:08:40.244Z,85.03
2018-03-06T16:11:07.592Z,101.33
2018-03-06T16:13:34.963Z,93.43
2018-03-06T16:16:02.309Z,92.40
2018-03-06T16:18:29.646Z,91.50
2018-03-06T16:20:57.018Z,91.20
2018-03-06T16:23:24.364Z,88.67
2018-03-06T16:25:51.728Z,97.23
2018-03-06T16:28:19.067Z,91.10
2018-03-06T16:30:46.433Z,99.43
2018-03-06T16:33:13.932Z,96.50
2018-03-06T16:35:41.298Z,86.60
2018-03-06T16:38:08.638Z,93.03
2018-03-06T16:40:36.028Z,98.57
2018-03-06T16:43:03.370Z,92.30
2018-03-06T16:45:30.736Z,98.80
2018-03-06T16:47:58.095Z,91.20
2018-03-06T16:50:25.483Z,94.20
2018-03-06T16:52:52.831Z,97.70
2018-03-06T16:55:20.203Z,103.30
2018-03-06T16:57:47.550Z,96.20
2018-03-06T17:00:14.918Z,104.13
2018-03-06T17:02:42.280Z,97.77
2018-03-06T17:05:09.647Z,89.73
2018-03-06T17:07:36.992Z,95.27
2018-03-06T17:10:04.383Z,91.30
2018-03-06T17:12:31.733Z,98.63
2018-03-06T17:14:59.106Z,94.40
2018-03-06T17:17:26.648Z,91.27
2018-03-06T17:19:54.035Z,94.43
2018-03-06T17:22:21.462Z,91.90
2018-03-06T17:24:48.850Z,94.20
2018-03-06T17:27:16.213Z,88.17
2018-03-06T17:29:43.587Z,98.63
2018-03-06T17:32:10.998Z,99.07
2018-03-06T17:34:38.340Z,94.97
2018-03-06T17:37:05.710Z,95.43
2018-03-06T17:39:33.053Z,94.00
2018-03-06T17:42:00.443Z,94.77
2018-03-06T17:44:27.779Z,86.50
2018-03-06T17:46:55.162Z,82.70
2018-03-06T17:49:22.506Z,92.60
2018-03-06T17:51:50.001Z,94.83
2018-03-06T17:54:17.404Z,93.77
2018-03-06T17:56:44.776Z,89.43
2018-03-06T17:59:12.124Z,95.97
2018-03-06T18:01:39.494Z,264.10
2018-03-06T18:04:06.952Z,98.80
2018-03-06T18:06:34.374Z,98.83
2018-03-06T18:09:01.754Z,91.10
2018-03-06T18:11:29.158Z,106.47
2018-03-06T18:13:56.504Z,98.10
2018-03-06T18:16:23.875Z,103.30
2018-03-06T18:18:51.222Z,95.50
2018-03-06T18:21:18.622Z,94.07
2018-03-06T18:23:45.968Z,93.83
2018-03-06T18:26:13.339Z,91.80
2018-03-06T18:28:40.686Z,91.13
2018-03-06T18:31:08.168Z,95.77
2018-03-06T18:33:35.519Z,100.30
2018-03-06T18:36:02.916Z,94.00
2018-03-06T18:38:30.262Z,102.10
2018-03-06T18:40:57.605Z,91.77
2018-03-06T18:43:24.994Z,92.40
2018-03-06T18:45:52.340Z,89.23
2018-03-06T18:48:19.714Z,92.60
2018-03-06T18:50:52.828Z,93.83
2018-03-06T18:53:20.198Z,99.07
2018-03-06T18:55:47.547Z,110.47
2018-03-06T18:58:14.927Z,85.43
2018-03-06T19:00:57.163Z,85.20
2018-03-06T19:03:30.439Z,89.53
2018-03-06T19:06:03.514Z,82.37
2018-03-06T19:08:30.897Z,92.47
2018-03-06T19:10:58.267Z,80.87
2018-03-06T19:13:25.639Z,80.50
2018-03-06T19:15:53.016Z,86.87
2018-03-06T19:18:20.372Z,77.87
2018-03-06T19:20:47.744Z,80.67
2018-03-06T19:23:15.088Z,85.93
2018-03-06T19:25:42.459Z,78.17
2018-03-06T19:28:09.881Z,79.93
2018-03-06T19:30:37.271Z,70.70
2018-03-06T19:33:04.623Z,71.90
2018-03-06T19:35:31.974Z,78.07
2018-03-06T19:37:59.343Z,72.53
2018-03-06T19:40:26.690Z,72.23
2018-03-06T19:42:54.059Z,68.50
2018-03-06T19:45:21.430Z,74.10
2018-03-06T19:47:48.799Z,73.27
2018-03-06T19:50:16.248Z,67.10
2018-03-06T19:52:43.630Z,62.73
2018-03-06T19:55:10.986Z,60.83
2018-03-06T19:57:38.350Z,66.13
2018-03-06T20:00:05.692Z,65.80
2018-03-06T20:02:33.082Z,61.97
2018-03-06T20:05:00.422Z,55.50
2018-03-06T20:07:27.831Z,55.27
2018-03-06T20:09:55.170Z,59.23
2018-03-06T20:12:22.551Z,60.07
2018-03-06T20:14:55.615Z,54.13
2018-03-06T20:17:23.013Z,57.37
2018-03-06T20:19:50.352Z,58.90
2018-03-06T20:22:17.725Z,52.60
2018-03-06T20:24:50.836Z,51.90
2018-03-06T20:27:18.243Z,56.13
2018-03-06T20:29:45.613Z,51.77
2018-03-06T20:32:18.744Z,53.40
2018-03-06T20:34:46.117Z,47.27
2018-03-06T20:37:13.504Z,48.13
2018-03-06T20:39:46.533Z,37.17
2018-03-06T20:42:13.890Z,43.30
2018-03-06T20:44:41.262Z,32.17
2018-03-06T20:47:14.207Z,40.10
2018-03-06T20:49:41.578Z,31.43
2018-03-06T20:52:08.919Z,28.90
2018-03-06T20:54:42.057Z,28.93
2018-03-06T20:57:09.411Z,28.30
2018-03-06T20:59:36.782Z,23.10
2018-03-06T21:02:04.127Z,24.17
2018-03-06T21:04:31.496Z,25.70
2018-03-06T21:06:58.858Z,27.93
2018-03-06T21:09:26.217Z,21.73
2018-03-06T21:11:53.555Z,23.10
2018-03-06T21:14:20.927Z,24.77
2018-03-06T21:16:48.277Z,21.37
2018-03-06T21:19:15.643Z,23.47
2018-03-06T21:21:42.991Z,23.47
2018-03-06T21:24:10.366Z,24.70
2018-03-06T21:26:37.716Z,24.03
2018-03-06T21:29:05.088Z,25.93
2018-03-06T21:31:32.434Z,26.43
2018-03-06T21:33:59.847Z,22.40
2018-03-06T21:36:27.194Z,26.17
2018-03-06T21:38:54.561Z,26.10
2018-03-06T21:41:21.911Z,23.53
2018-03-06T21:43:49.284Z,21.70
2018-03-06T21:46:16.635Z,25.60
2018-03-06T21:48:44.015Z,23.43
2018-03-06T21:51:11.388Z,27.40
2018-03-06T21:53:38.760Z,23.27
2018-03-06T21:56:06.100Z,24.83
2018-03-06T21:58:33.482Z,26.30
2018-03-06T22:01:00.852Z,26.33
2018-03-06T22:03:28.228Z,22.70
2018-03-06T22:05:55.569Z,22.80
2018-03-06T22:08:22.917Z,25.63
2018-03-06T22:10:50.284Z,23.83
2018-03-06T22:13:17.627Z,22.90
2018-03-06T22:15:44.996Z,24.27
2018-03-06T22:18:12.352Z,23.53
2018-03-06T22:20:39.717Z,26.13
2018-03-06T22:23:07.052Z,23.87
2018-03-06T22:25:34.422Z,20.83
2018-03-06T22:28:01.771Z,23.73
2018-03-06T22:30:29.150Z,26.80
2018-03-06T22:32:56.483Z,21.60
2018-03-06T22:35:23.855Z,22.37
2018-03-06T22:37:51.196Z,23.67
2018-03-06T22:40:18.564Z,22.10
2018-03-06T22:42:45.916Z,23.80
2018-03-06T22:45:13.278Z,22.83
2018-03-06T22:47:40.619Z,18.70
2018-03-06T22:50:07.987Z,18.13
2018-03-06T22:52:35.329Z,18.77
2018-03-06T22:55:02.695Z,21.60
2018-03-06T22:57:30.073Z,16.43
2018-03-06T22:59:57.414Z,18.13
2018-03-06T23:02:24.782Z,17.03
2018-03-06T23:04:52.135Z,16.40
2018-03-06T23:07:19.494Z,17.40
2018-03-06T23:09:46.834Z,19.47
2018-03-06T23:12:14.217Z,23.83
2018-03-06T23:14:41.568Z,21.60
2018-03-06T23:17:08.946Z,21.00
2018-03-06T23:19:36.458Z,19.90
2018-03-06T23:22:03.834Z,20.10
2018-03-06T23:24:31.246Z,20.30
2018-03-06T23:26:58.627Z,21.07
2018-03-06T23:29:25.977Z,19.10
2018-03-06T23:31:53.387Z,17.30
2018-03-06T23:34:20.734Z,19.93
2018-03-06T23:36:48.102Z,20.50
2018-03-06T23:39:15.472Z,17.60
2018-03-06T23:41:42.811Z,16.23
2018-03-06T23:44:10.191Z,15.50
2018-03-06T23:46:37.544Z,16.30
2018-03-06T23:49:04.906Z,14.97
2018-03-06T23:51:32.250Z,16.27
2018-03-06T23:53:59.647Z,15.13
2018-03-06T23:56:26.996Z,15.47
2018-03-06T23:58:54.407Z,15.63
